sensor_id;sensor_type;location;lat;lon;timestamp;pressure;altitude;pressure_sealevel;temperature;humidity
22031;BME280;11179;52.106;21.024;2022-10-23T00:00:33;100379.47;;;13.21;76.34
22031;BME280;11179;52.106;21.024;2022-10-23T00:02:59;100372.59;;;13.23;76.46
22031;BME280;11179;52.106;21.024;2022-10-23T00:05:26;100374.25;;;13.24;76.44
22031;BME280;11179;52.106;21.024;2022-10-23T00:07:54;100378.09;;;13.23;76.42
22031;BME280;11179;52.106;21.024;2022-10-23T00:10:21;100380.03;;;13.28;76.34
22031;BME280;11179;52.106;21.024;2022-10-23T00:12:47;100373.69;;;13.27;76.20
22031;BME280;11179;52.106;21.024;2022-10-23T00:15:14;100380.88;;;13.28;76.19
22031;BME280;11179;52.106;21.024;2022-10-23T00:17:40;100379.75;;;13.24;76.28
22031;BME280;11179;52.106;21.024;2022-10-23T00:20:06;100386.38;;;13.28;76.12
22031;BME280;11179;52.106;21.024;2022-10-23T00:22:32;100378.66;;;13.25;76.31
22031;BME280;11179;52.106;21.024;2022-10-23T00:24:58;100383.34;;;13.30;76.29
22031;BME280;11179;52.106;21.024;2022-10-23T00:27:23;100390.78;;;13.29;76.42
22031;BME280;11179;52.106;21.024;2022-10-23T00:29:49;100386.94;;;13.30;76.11
22031;BME280;11179;52.106;21.024;2022-10-23T00:32:14;100394.38;;;13.30;76.13
22031;BME280;11179;52.106;21.024;2022-10-23T00:34:39;100394.06;;;13.31;76.15
22031;BME280;11179;52.106;21.024;2022-10-23T00:37:05;100392.44;;;13.30;76.10
22031;BME280;11179;52.106;21.024;2022-10-23T00:39:30;100403.47;;;13.30;76.09
22031;BME280;11179;52.106;21.024;2022-10-23T00:41:55;100397.97;;;13.25;76.26
22031;BME280;11179;52.106;21.024;2022-10-23T00:46:46;100405.69;;;13.28;76.24
22031;BME280;11179;52.106;21.024;2022-10-23T00:49:12;100402.94;;;13.28;76.34
22031;BME280;11179;52.106;21.024;2022-10-23T00:51:47;100404.59;;;13.29;76.17
22031;BME280;11179;52.106;21.024;2022-10-23T00:54:16;100410.09;;;13.29;76.29
22031;BME280;11179;52.106;21.024;2022-10-23T00:56:43;100409.28;;;13.29;76.18
22031;BME280;11179;52.106;21.024;2022-10-23T00:59:09;100413.69;;;13.30;76.22
22031;BME280;11179;52.106;21.024;2022-10-23T01:01:34;100417.28;;;13.30;76.42
22031;BME280;11179;52.106;21.024;2022-10-23T01:04:01;100420.31;;;13.29;76.60
22031;BME280;11179;52.106;21.024;2022-10-23T01:06:41;100422.78;;;13.30;76.40
22031;BME280;11179;52.106;21.024;2022-10-23T01:09:21;100432.41;;;13.33;76.39
22031;BME280;11179;52.106;21.024;2022-10-23T01:12:00;100432.69;;;13.31;76.22
22031;BME280;11179;52.106;21.024;2022-10-23T01:14:35;100427.47;;;13.30;76.52
22031;BME280;11179;52.106;21.024;2022-10-23T01:17:34;100432.16;;;13.29;76.47
22031;BME280;11179;52.106;21.024;2022-10-23T01:28:04;100437.66;;;13.24;76.88
22031;BME280;11179;52.106;21.024;2022-10-23T01:30:32;100447.59;;;13.30;76.78
22031;BME280;11179;52.106;21.024;2022-10-23T01:33:06;100448.44;;;13.31;76.75
22031;BME280;11179;52.106;21.024;2022-10-23T01:35:36;100444.84;;;13.30;76.92
22031;BME280;11179;52.106;21.024;2022-10-23T01:38:08;100441.53;;;13.28;76.98
22031;BME280;11179;52.106;21.024;2022-10-23T01:40:49;100438.75;;;13.33;76.94
22031;BME280;11179;52.106;21.024;2022-10-23T01:43:32;100426.09;;;13.27;77.03
22031;BME280;11179;52.106;21.024;2022-10-23T01:46:05;100433.25;;;13.33;76.95
22031;BME280;11179;52.106;21.024;2022-10-23T01:48:33;100433.81;;;13.30;76.90
22031;BME280;11179;52.106;21.024;2022-10-23T01:51:03;100440.97;;;13.37;77.00
22031;BME280;11179;52.106;21.024;2022-10-23T01:53:33;100445.66;;;13.36;77.10
22031;BME280;11179;52.106;21.024;2022-10-23T01:56:01;100445.94;;;13.34;76.99
22031;BME280;11179;52.106;21.024;2022-10-23T01:58:29;100455.59;;;13.37;77.11
22031;BME280;11179;52.106;21.024;2022-10-23T02:00:58;100448.41;;;13.36;77.23
22031;BME280;11179;52.106;21.024;2022-10-23T02:03:28;100454.22;;;13.40;77.24
22031;BME280;11179;52.106;21.024;2022-10-23T02:05:55;100448.72;;;13.40;77.17
22031;BME280;11179;52.106;21.024;2022-10-23T02:08:21;100459.19;;;13.43;77.18
22031;BME280;11179;52.106;21.024;2022-10-23T02:13:41;100464.72;;;13.43;77.18
22031;BME280;11179;52.106;21.024;2022-10-23T02:16:32;100464.13;;;13.46;76.93
22031;BME280;11179;52.106;21.024;2022-10-23T02:19:18;100471.88;;;13.44;77.09
22031;BME280;11179;52.106;21.024;2022-10-23T02:21:52;100456.72;;;13.41;76.97
22031;BME280;11179;52.106;21.024;2022-10-23T02:24:28;100473.50;;;13.45;77.06
22031;BME280;11179;52.106;21.024;2022-10-23T02:26:58;100470.47;;;13.46;77.18
22031;BME280;11179;52.106;21.024;2022-10-23T02:29:39;100451.75;;;13.43;76.97
22031;BME280;11179;52.106;21.024;2022-10-23T02:32:07;100473.78;;;13.48;77.09
22031;BME280;11179;52.106;21.024;2022-10-23T02:34:34;100482.34;;;13.47;77.09
22031;BME280;11179;52.106;21.024;2022-10-23T02:37:01;100472.13;;;13.47;77.17
22031;BME280;11179;52.106;21.024;2022-10-23T02:39:26;100479.59;;;13.47;77.09
22031;BME280;11179;52.106;21.024;2022-10-23T02:42:07;100482.34;;;13.47;77.24
22031;BME280;11179;52.106;21.024;2022-10-23T02:44:47;100488.97;;;13.51;77.09
22031;BME280;11179;52.106;21.024;2022-10-23T02:50:14;100490.06;;;13.50;76.90
22031;BME280;11179;52.106;21.024;2022-10-23T02:52:58;100496.13;;;13.47;77.06
22031;BME280;11179;52.106;21.024;2022-10-23T02:58:44;100487.84;;;13.47;76.95
22031;BME280;11179;52.106;21.024;2022-10-23T03:01:19;100481.53;;;13.41;77.01
22031;BME280;11179;52.106;21.024;2022-10-23T03:04:00;100488.44;;;13.44;76.87
22031;BME280;11179;52.106;21.024;2022-10-23T03:06:26;100491.72;;;13.46;76.96
22031;BME280;11179;52.106;21.024;2022-10-23T03:09:03;100487.03;;;13.46;77.03
22031;BME280;11179;52.106;21.024;2022-10-23T03:11:29;100483.44;;;13.46;76.85
22031;BME280;11179;52.106;21.024;2022-10-23T03:13:54;100473.00;;;13.43;76.92
22031;BME280;11179;52.106;21.024;2022-10-23T03:16:20;100482.91;;;13.44;76.83
22031;BME280;11179;52.106;21.024;2022-10-23T03:18:45;100482.63;;;13.40;76.97
22031;BME280;11179;52.106;21.024;2022-10-23T03:21:11;100479.59;;;13.37;76.87
22031;BME280;11179;52.106;21.024;2022-10-23T03:23:36;100484.00;;;13.38;76.83
22031;BME280;11179;52.106;21.024;2022-10-23T03:26:01;100486.19;;;13.36;77.00
22031;BME280;11179;52.106;21.024;2022-10-23T03:28:27;100488.69;;;13.37;76.81
22031;BME280;11179;52.106;21.024;2022-10-23T03:30:52;100482.88;;;13.33;76.86
22031;BME280;11179;52.106;21.024;2022-10-23T03:33:17;100484.28;;;13.31;76.82
22031;BME280;11179;52.106;21.024;2022-10-23T03:35:43;100484.28;;;13.31;76.74
22031;BME280;11179;52.106;21.024;2022-10-23T03:38:08;100499.44;;;13.33;76.79
22031;BME280;11179;52.106;21.024;2022-10-23T03:40:33;100497.78;;;13.32;76.75
22031;BME280;11179;52.106;21.024;2022-10-23T03:42:59;100496.94;;;13.27;76.79
22031;BME280;11179;52.106;21.024;2022-10-23T03:45:24;100504.69;;;13.30;76.50
22031;BME280;11179;52.106;21.024;2022-10-23T03:47:50;100497.78;;;13.27;76.63
22031;BME280;11179;52.106;21.024;2022-10-23T03:50:17;100505.22;;;13.27;76.71
22031;BME280;11179;52.106;21.024;2022-10-23T03:52:43;100500.25;;;13.24;76.62
22031;BME280;11179;52.106;21.024;2022-10-23T03:55:08;100512.38;;;13.23;76.59
22031;BME280;11179;52.106;21.024;2022-10-23T03:57:34;100499.97;;;13.20;76.63
22031;BME280;11179;52.106;21.024;2022-10-23T04:00:00;100503.28;;;13.22;76.76
22031;BME280;11179;52.106;21.024;2022-10-23T04:02:25;100511.53;;;13.22;76.60
22031;BME280;11179;52.106;21.024;2022-10-23T04:04:50;100518.44;;;13.25;76.77
22031;BME280;11179;52.106;21.024;2022-10-23T04:07:16;100514.31;;;13.22;76.61
22031;BME280;11179;52.106;21.024;2022-10-23T04:09:41;100519.53;;;13.19;76.48
22031;BME280;11179;52.106;21.024;2022-10-23T04:12:06;100521.44;;;13.18;76.63
22031;BME280;11179;52.106;21.024;2022-10-23T04:14:32;100527.25;;;13.22;76.41
22031;BME280;11179;52.106;21.024;2022-10-23T04:16:58;100543.53;;;13.23;76.59
22031;BME280;11179;52.106;21.024;2022-10-23T04:19:23;100534.69;;;13.21;76.56
22031;BME280;11179;52.106;21.024;2022-10-23T04:21:49;100526.44;;;13.21;76.56
22031;BME280;11179;52.106;21.024;2022-10-23T04:24:14;100532.50;;;13.23;76.47
22031;BME280;11179;52.106;21.024;2022-10-23T04:26:40;100535.53;;;13.22;76.46
22031;BME280;11179;52.106;21.024;2022-10-23T04:29:05;100546.56;;;13.22;76.54
22031;BME280;11179;52.106;21.024;2022-10-23T04:31:31;100549.31;;;13.22;76.43
22031;BME280;11179;52.106;21.024;2022-10-23T04:33:56;100553.16;;;13.21;76.47
22031;BME280;11179;52.106;21.024;2022-10-23T04:36:21;100557.59;;;13.22;76.43
22031;BME280;11179;52.106;21.024;2022-10-23T04:38:47;100547.66;;;13.16;76.29
22031;BME280;11179;52.106;21.024;2022-10-23T04:41:12;100566.13;;;13.20;76.33
22031;BME280;11179;52.106;21.024;2022-10-23T04:43:38;100560.63;;;13.20;76.46
22031;BME280;11179;52.106;21.024;2022-10-23T04:46:03;100564.47;;;13.19;76.21
22031;BME280;11179;52.106;21.024;2022-10-23T04:48:29;100561.72;;;13.19;76.30
22031;BME280;11179;52.106;21.024;2022-10-23T04:50:59;100566.97;;;13.21;76.35
22031;BME280;11179;52.106;21.024;2022-10-23T04:53:26;100572.19;;;13.22;76.30
22031;BME280;11179;52.106;21.024;2022-10-23T04:55:55;100569.44;;;13.17;76.32
22031;BME280;11179;52.106;21.024;2022-10-23T04:58:22;100574.13;;;13.22;76.29
22031;BME280;11179;52.106;21.024;2022-10-23T05:00:48;100566.69;;;13.17;76.03
22031;BME280;11179;52.106;21.024;2022-10-23T05:03:14;100566.13;;;13.15;76.12
22031;BME280;11179;52.106;21.024;2022-10-23T05:05:40;100574.66;;;13.19;76.15
22031;BME280;11179;52.106;21.024;2022-10-23T05:08:05;100576.59;;;13.18;76.14
22031;BME280;11179;52.106;21.024;2022-10-23T05:10:31;100575.75;;;13.13;76.01
22031;BME280;11179;52.106;21.024;2022-10-23T05:12:56;100576.06;;;13.16;76.18
22031;BME280;11179;52.106;21.024;2022-10-23T05:15:22;100578.25;;;13.14;76.00
22031;BME280;11179;52.106;21.024;2022-10-23T05:17:49;100585.44;;;13.15;75.97
22031;BME280;11179;52.106;21.024;2022-10-23T05:20:21;100573.25;;;13.06;75.72
22031;BME280;11179;52.106;21.024;2022-10-23T05:22:48;100588.16;;;13.10;75.89
22031;BME280;11179;52.106;21.024;2022-10-23T05:25:15;100582.59;;;13.05;75.68
22031;BME280;11179;52.106;21.024;2022-10-23T05:27:41;100586.50;;;13.09;75.75
22031;BME280;11179;52.106;21.024;2022-10-23T05:30:06;100588.41;;;13.09;75.78
22031;BME280;11179;52.106;21.024;2022-10-23T05:32:32;100585.94;;;13.02;75.66
22031;BME280;11179;52.106;21.024;2022-10-23T05:35:00;100595.28;;;13.06;75.76
22031;BME280;11179;52.106;21.024;2022-10-23T05:37:27;100594.75;;;13.04;75.48
22031;BME280;11179;52.106;21.024;2022-10-23T05:39:53;100595.56;;;13.05;75.54
22031;BME280;11179;52.106;21.024;2022-10-23T05:42:21;100599.97;;;13.06;75.59
22031;BME280;11179;52.106;21.024;2022-10-23T05:44:46;100601.06;;;13.05;75.42
22031;BME280;11179;52.106;21.024;2022-10-23T05:47:12;100601.63;;;13.02;75.48
22031;BME280;11179;52.106;21.024;2022-10-23T05:49:37;100603.81;;;13.00;75.45
22031;BME280;11179;52.106;21.024;2022-10-23T05:52:02;100604.09;;;12.98;75.54
22031;BME280;11179;52.106;21.024;2022-10-23T05:54:28;100608.81;;;13.03;75.25
22031;BME280;11179;52.106;21.024;2022-10-23T05:56:54;100606.88;;;13.03;75.33
22031;BME280;11179;52.106;21.024;2022-10-23T05:59:19;100604.66;;;13.05;75.28
22031;BME280;11179;52.106;21.024;2022-10-23T06:01:45;100601.38;;;13.08;75.24
22031;BME280;11179;52.106;21.024;2022-10-23T06:04:10;100591.44;;;13.02;75.14
22031;BME280;11179;52.106;21.024;2022-10-23T06:06:35;100601.38;;;13.08;75.29
22031;BME280;11179;52.106;21.024;2022-10-23T06:09:02;100596.69;;;13.09;75.08
22031;BME280;11179;52.106;21.024;2022-10-23T06:11:27;100595.28;;;13.01;75.07
22031;BME280;11179;52.106;21.024;2022-10-23T06:13:53;100595.53;;;12.94;74.98
22031;BME280;11179;52.106;21.024;2022-10-23T06:16:20;100607.97;;;13.07;74.96
22031;BME280;11179;52.106;21.024;2022-10-23T06:18:46;100612.44;;;13.13;75.04
22031;BME280;11179;52.106;21.024;2022-10-23T06:21:13;100611.91;;;13.16;74.84
22031;BME280;11179;52.106;21.024;2022-10-23T06:23:40;100619.38;;;13.26;74.74
22031;BME280;11179;52.106;21.024;2022-10-23T06:26:08;100618.00;;;13.28;74.55
22031;BME280;11179;52.106;21.024;2022-10-23T06:28:34;100616.34;;;13.27;74.57
22031;BME280;11179;52.106;21.024;2022-10-23T06:31:04;100620.78;;;13.33;74.38
22031;BME280;11179;52.106;21.024;2022-10-23T06:33:29;100628.78;;;13.35;74.35
22031;BME280;11179;52.106;21.024;2022-10-23T06:35:55;100615.25;;;13.28;74.34
22031;BME280;11179;52.106;21.024;2022-10-23T06:38:20;100634.28;;;13.35;74.08
22031;BME280;11179;52.106;21.024;2022-10-23T06:40:51;100621.38;;;13.41;74.10
22031;BME280;11179;52.106;21.024;2022-10-23T06:43:17;100623.59;;;13.44;74.11
22031;BME280;11179;52.106;21.024;2022-10-23T06:45:42;100631.28;;;13.47;73.84
22031;BME280;11179;52.106;21.024;2022-10-23T06:48:08;100633.56;;;13.55;73.82
22031;BME280;11179;52.106;21.024;2022-10-23T06:50:33;100641.84;;;13.60;73.62
22031;BME280;11179;52.106;21.024;2022-10-23T06:52:58;100643.00;;;13.69;73.46
22031;BME280;11179;52.106;21.024;2022-10-23T06:55:23;100647.41;;;13.75;73.36
22031;BME280;11179;52.106;21.024;2022-10-23T06:57:49;100653.22;;;13.79;73.25
22031;BME280;11179;52.106;21.024;2022-10-23T07:00:14;100647.41;;;13.85;73.07
22031;BME280;11179;52.106;21.024;2022-10-23T07:02:40;100636.41;;;13.90;73.02
22031;BME280;11179;52.106;21.024;2022-10-23T07:05:05;100643.03;;;13.94;72.77
22031;BME280;11179;52.106;21.024;2022-10-23T07:07:31;100644.13;;;13.98;72.72
22031;BME280;11179;52.106;21.024;2022-10-23T07:09:56;100653.00;;;14.11;72.50
22031;BME280;11179;52.106;21.024;2022-10-23T07:12:22;100644.16;;;14.09;72.37
22031;BME280;11179;52.106;21.024;2022-10-23T07:14:47;100645.25;;;14.13;72.31
22031;BME280;11179;52.106;21.024;2022-10-23T07:17:13;100645.56;;;14.11;72.24
22031;BME280;11179;52.106;21.024;2022-10-23T07:19:38;100645.25;;;14.13;72.39
22031;BME280;11179;52.106;21.024;2022-10-23T07:22:04;100642.22;;;14.14;72.28
22031;BME280;11179;52.106;21.024;2022-10-23T07:24:30;100656.59;;;14.16;72.11
22031;BME280;11179;52.106;21.024;2022-10-23T07:27:01;100654.66;;;14.17;72.29
22031;BME280;11179;52.106;21.024;2022-10-23T07:29:26;100647.19;;;14.17;72.13
22031;BME280;11179;52.106;21.024;2022-10-23T07:31:51;100639.19;;;14.16;71.94
22031;BME280;11179;52.106;21.024;2022-10-23T07:34:17;100642.78;;;14.21;71.91
22031;BME280;11179;52.106;21.024;2022-10-23T07:36:42;100646.94;;;14.24;71.85
22031;BME280;11179;52.106;21.024;2022-10-23T07:39:07;100643.06;;;14.30;71.89
22031;BME280;11179;52.106;21.024;2022-10-23T07:41:33;100644.72;;;14.36;71.68
22031;BME280;11179;52.106;21.024;2022-10-23T07:43:58;100633.41;;;14.37;71.77
22031;BME280;11179;52.106;21.024;2022-10-23T07:46:24;100638.63;;;14.44;71.64
22031;BME280;11179;52.106;21.024;2022-10-23T07:48:49;100638.63;;;14.44;71.63
22031;BME280;11179;52.106;21.024;2022-10-23T07:51:15;100634.22;;;14.43;71.58
22031;BME280;11179;52.106;21.024;2022-10-23T07:53:41;100635.28;;;14.52;71.40
22031;BME280;11179;52.106;21.024;2022-10-23T07:56:14;100632.81;;;14.61;71.28
22031;BME280;11179;52.106;21.024;2022-10-23T07:58:40;100635.88;;;14.74;71.26
22031;BME280;11179;52.106;21.024;2022-10-23T08:01:15;100629.47;;;14.84;71.04
22031;BME280;11179;52.106;21.024;2022-10-23T08:03:41;100622.53;;;15.02;70.97
22031;BME280;11179;52.106;21.024;2022-10-23T08:06:06;100626.25;;;15.31;70.66
22031;BME280;11179;52.106;21.024;2022-10-23T08:08:32;100618.69;;;15.57;69.77
22031;BME280;11179;52.106;21.024;2022-10-23T08:10:57;100616.31;;;15.85;69.11
22031;BME280;11179;52.106;21.024;2022-10-23T08:13:22;100624.75;;;16.03;68.66
22031;BME280;11179;52.106;21.024;2022-10-23T08:15:49;100627.44;;;16.13;68.35
22031;BME280;11179;52.106;21.024;2022-10-23T08:18:15;100620.75;;;16.20;67.88
22031;BME280;11179;52.106;21.024;2022-10-23T08:20:42;100623.78;;;16.23;67.69
22031;BME280;11179;52.106;21.024;2022-10-23T08:23:08;100612.72;;;16.23;67.61
22031;BME280;11179;52.106;21.024;2022-10-23T08:25:36;100628.41;;;16.33;67.46
22031;BME280;11179;52.106;21.024;2022-10-23T08:28:02;100633.94;;;16.33;67.58
22031;BME280;11179;52.106;21.024;2022-10-23T08:30:27;100635.59;;;16.34;67.22
22031;BME280;11179;52.106;21.024;2022-10-23T08:32:53;100635.94;;;16.27;67.12
22031;BME280;11179;52.106;21.024;2022-10-23T08:35:18;100639.91;;;16.16;67.40
22031;BME280;11179;52.106;21.024;2022-10-23T08:37:43;100641.09;;;16.05;67.63
22031;BME280;11179;52.106;21.024;2022-10-23T08:40:21;100637.53;;;15.99;67.77
22031;BME280;11179;52.106;21.024;2022-10-23T08:42:56;100645.63;;;15.91;67.70
22031;BME280;11179;52.106;21.024;2022-10-23T08:45:27;100647.66;;;15.75;68.13
22031;BME280;11179;52.106;21.024;2022-10-23T08:47:57;100648.53;;;15.70;68.28
22031;BME280;11179;52.106;21.024;2022-10-23T08:50:27;100650.47;;;15.70;68.35
22031;BME280;11179;52.106;21.024;2022-10-23T08:53:04;100649.03;;;15.77;68.23
22031;BME280;11179;52.106;21.024;2022-10-23T08:55:35;100646.75;;;15.85;68.06
22031;BME280;11179;52.106;21.024;2022-10-23T09:00:53;100651.34;;;16.04;68.23
22031;BME280;11179;52.106;21.024;2022-10-23T09:03:20;100649.41;;;16.05;67.77
22031;BME280;11179;52.106;21.024;2022-10-23T09:11:26;100654.50;;;15.88;68.34
22031;BME280;11179;52.106;21.024;2022-10-23T09:14:27;100651.97;;;15.96;68.35
22031;BME280;11179;52.106;21.024;2022-10-23T09:17:24;100646.13;;;15.98;68.22
22031;BME280;11179;52.106;21.024;2022-10-23T09:22:44;100651.06;;;16.06;68.28
22031;BME280;11179;52.106;21.024;2022-10-23T09:25:17;100653.56;;;16.07;68.15
22031;BME280;11179;52.106;21.024;2022-10-23T09:27:51;100645.78;;;16.09;68.17
22031;BME280;11179;52.106;21.024;2022-10-23T09:30:35;100655.16;;;16.13;67.95
22031;BME280;11179;52.106;21.024;2022-10-23T09:35:38;100650.22;;;16.10;68.23
22031;BME280;11179;52.106;21.024;2022-10-23T09:38:03;100653.16;;;16.24;67.86
22031;BME280;11179;52.106;21.024;2022-10-23T09:40:37;100661.56;;;16.43;67.81
22031;BME280;11179;52.106;21.024;2022-10-23T09:43:13;100661.72;;;16.57;67.34
22031;BME280;11179;52.106;21.024;2022-10-23T09:45:43;100662.00;;;16.60;67.09
22031;BME280;11179;52.106;21.024;2022-10-23T09:48:12;100654.75;;;16.64;67.05
22031;BME280;11179;52.106;21.024;2022-10-23T09:53:51;100655.53;;;16.70;66.29
22031;BME280;11179;52.106;21.024;2022-10-23T09:56:28;100650.03;;;16.65;66.24
22031;BME280;11179;52.106;21.024;2022-10-23T09:58:57;100658.34;;;16.94;65.48
22031;BME280;11179;52.106;21.024;2022-10-23T10:01:25;100655.16;;;17.05;64.95
22031;BME280;11179;52.106;21.024;2022-10-23T10:03:51;100652.78;;;17.17;64.58
22031;BME280;11179;52.106;21.024;2022-10-23T10:06:28;100655.22;;;17.24;64.24
22031;BME280;11179;52.106;21.024;2022-10-23T10:08:59;100650.44;;;17.30;64.21
22031;BME280;11179;52.106;21.024;2022-10-23T10:14:03;100646.59;;;17.26;64.11
22031;BME280;11179;52.106;21.024;2022-10-23T10:16:43;100646.06;;;17.23;63.85
22031;BME280;11179;52.106;21.024;2022-10-23T10:19:28;100646.38;;;17.22;63.80
22031;BME280;11179;52.106;21.024;2022-10-23T10:22:10;100654.41;;;17.23;63.87
22031;BME280;11179;52.106;21.024;2022-10-23T10:30:28;100651.91;;;16.98;64.00
22031;BME280;11179;52.106;21.024;2022-10-23T10:38:58;100653.28;;;17.01;64.28
22031;BME280;11179;52.106;21.024;2022-10-23T10:41:38;100651.97;;;16.93;64.43
22031;BME280;11179;52.106;21.024;2022-10-23T10:47:13;100642.22;;;16.96;64.37
22031;BME280;11179;52.106;21.024;2022-10-23T10:50:35;100631.13;;;16.96;64.23
22031;BME280;11179;52.106;21.024;2022-10-23T10:52:59;100634.69;;;16.77;64.55
22031;BME280;11179;52.106;21.024;2022-10-23T10:55:35;100630.00;;;16.73;64.82
22031;BME280;11179;52.106;21.024;2022-10-23T11:00:32;100643.56;;;16.74;64.66
22031;BME280;11179;52.106;21.024;2022-10-23T11:03:02;100639.72;;;16.70;64.54
22031;BME280;11179;52.106;21.024;2022-10-23T11:08:34;100639.84;;;16.60;64.39
22031;BME280;11179;52.106;21.024;2022-10-23T11:11:07;100625.97;;;16.60;64.46
22031;BME280;11179;52.106;21.024;2022-10-23T11:13:36;100631.53;;;16.60;64.19
22031;BME280;11179;52.106;21.024;2022-10-23T11:16:26;100633.19;;;16.61;64.32
22031;BME280;11179;52.106;21.024;2022-10-23T11:19:25;100635.94;;;16.61;64.19
22031;BME280;11179;52.106;21.024;2022-10-23T11:22:15;100625.69;;;16.62;64.30
22031;BME280;11179;52.106;21.024;2022-10-23T11:38:32;100620.22;;;17.04;63.36
22031;BME280;11179;52.106;21.024;2022-10-23T11:41:01;100624.28;;;17.12;63.45
22031;BME280;11179;52.106;21.024;2022-10-23T11:43:33;100614.28;;;17.16;63.13
22031;BME280;11179;52.106;21.024;2022-10-23T11:46:13;100613.78;;;17.09;63.21
22031;BME280;11179;52.106;21.024;2022-10-23T11:48:41;100616.63;;;17.04;63.35
22031;BME280;11179;52.106;21.024;2022-10-23T11:51:26;100622.63;;;17.11;62.94
22031;BME280;11179;52.106;21.024;2022-10-23T11:53:52;100609.75;;;17.20;62.67
22031;BME280;11179;52.106;21.024;2022-10-23T11:58:48;100612.56;;;17.39;62.62
22031;BME280;11179;52.106;21.024;2022-10-23T12:04:04;100606.19;;;17.38;62.19
22031;BME280;11179;52.106;21.024;2022-10-23T12:06:41;100604.09;;;17.30;62.22
22031;BME280;11179;52.106;21.024;2022-10-23T12:09:27;100597.47;;;17.26;62.04
22031;BME280;11179;52.106;21.024;2022-10-23T12:14:51;100599.72;;;17.24;62.04
22031;BME280;11179;52.106;21.024;2022-10-23T12:19:52;100579.91;;;17.12;61.96
22031;BME280;11179;52.106;21.024;2022-10-23T12:22:18;100588.88;;;17.28;61.41
22031;BME280;11179;52.106;21.024;2022-10-23T12:25:10;100578.13;;;17.21;61.32
22031;BME280;11179;52.106;21.024;2022-10-23T12:27:47;100585.56;;;17.26;61.49
22031;BME280;11179;52.106;21.024;2022-10-23T12:30:23;100583.66;;;17.21;61.67
22031;BME280;11179;52.106;21.024;2022-10-23T12:38:16;100582.56;;;16.98;61.60
22031;BME280;11179;52.106;21.024;2022-10-23T12:41:10;100597.28;;;16.99;61.98
22031;BME280;11179;52.106;21.024;2022-10-23T12:43:38;100591.97;;;17.02;61.69
22031;BME280;11179;52.106;21.024;2022-10-23T12:46:28;100591.97;;;17.02;61.97
22031;BME280;11179;52.106;21.024;2022-10-23T12:48:55;100590.53;;;17.05;61.79
22031;BME280;11179;52.106;21.024;2022-10-23T12:51:26;100593.00;;;17.06;61.98
22031;BME280;11179;52.106;21.024;2022-10-23T12:53:52;100601.13;;;17.03;62.09
22031;BME280;11179;52.106;21.024;2022-10-23T12:56:19;100598.91;;;17.00;62.01
22031;BME280;11179;52.106;21.024;2022-10-23T12:58:54;100600.03;;;16.99;62.17
22031;BME280;11179;52.106;21.024;2022-10-23T13:01:31;100600.91;;;16.94;62.31
22031;BME280;11179;52.106;21.024;2022-10-23T13:06:26;100594.38;;;16.85;62.43
22031;BME280;11179;52.106;21.024;2022-10-23T13:08:52;100597.72;;;16.82;62.75
22031;BME280;11179;52.106;21.024;2022-10-23T13:11:19;100593.84;;;16.83;62.63
22031;BME280;11179;52.106;21.024;2022-10-23T13:13:45;100597.97;;;16.85;62.75
22031;BME280;11179;52.106;21.024;2022-10-23T13:16:16;100600.69;;;16.91;62.84
22031;BME280;11179;52.106;21.024;2022-10-23T13:18:42;100592.13;;;16.87;62.60
22031;BME280;11179;52.106;21.024;2022-10-23T13:21:20;100595.94;;;16.91;62.69
22031;BME280;11179;52.106;21.024;2022-10-23T13:23:47;100594.19;;;17.00;62.79
22031;BME280;11179;52.106;21.024;2022-10-23T13:28:49;100593.91;;;17.02;62.61
22031;BME280;11179;52.106;21.024;2022-10-23T13:33:49;100599.47;;;17.02;62.96
22031;BME280;11179;52.106;21.024;2022-10-23T13:38:58;100592.31;;;16.96;62.63
22031;BME280;11179;52.106;21.024;2022-10-23T13:41:26;100593.38;;;17.00;62.69
22031;BME280;11179;52.106;21.024;2022-10-23T13:43:51;100592.25;;;17.01;62.66
22031;BME280;11179;52.106;21.024;2022-10-23T13:46:19;100596.91;;;17.05;62.98
22031;BME280;11179;52.106;21.024;2022-10-23T13:48:45;100592.41;;;17.09;62.71
22031;BME280;11179;52.106;21.024;2022-10-23T13:51:14;100599.38;;;17.07;62.64
22031;BME280;11179;52.106;21.024;2022-10-23T13:53:40;100593.38;;;17.00;62.85
22031;BME280;11179;52.106;21.024;2022-10-23T13:56:05;100595.63;;;16.98;62.70
22031;BME280;11179;52.106;21.024;2022-10-23T13:58:31;100594.00;;;16.92;62.88
22031;BME280;11179;52.106;21.024;2022-10-23T14:00:57;100589.13;;;16.83;62.85
22031;BME280;11179;52.106;21.024;2022-10-23T14:03:23;100591.66;;;16.80;63.01
22031;BME280;11179;52.106;21.024;2022-10-23T14:05:49;100594.78;;;16.73;63.26
22031;BME280;11179;52.106;21.024;2022-10-23T14:08:15;100593.97;;;16.73;63.34
22031;BME280;11179;52.106;21.024;2022-10-23T14:10:40;100574.84;;;16.71;63.27
22031;BME280;11179;52.106;21.024;2022-10-23T14:13:06;100571.53;;;16.69;63.57
22031;BME280;11179;52.106;21.024;2022-10-23T14:15:31;100578.47;;;16.67;63.43
22031;BME280;11179;52.106;21.024;2022-10-23T14:17:56;100583.81;;;16.63;63.55
22031;BME280;11179;52.106;21.024;2022-10-23T14:20:22;100589.94;;;16.60;63.65
22031;BME280;11179;52.106;21.024;2022-10-23T14:22:47;100594.94;;;16.58;63.95
22031;BME280;11179;52.106;21.024;2022-10-23T14:25:12;100597.72;;;16.58;64.00
22031;BME280;11179;52.106;21.024;2022-10-23T14:27:38;100598.81;;;16.57;63.90
22031;BME280;11179;52.106;21.024;2022-10-23T14:30:04;100599.63;;;16.58;63.89